createdAt,value
2023-03-04T00:00:02.730Z,74
2023-03-04T00:20:02.480Z,75
2023-03-04T00:40:02.785Z,76
2023-03-04T01:00:03.094Z,77
2023-03-04T01:20:02.529Z,77
2023-03-04T01:40:03.083Z,77
2023-03-04T02:00:02.406Z,76
2023-03-04T02:20:03.198Z,76
2023-03-04T02:40:02.597Z,77
2023-03-04T03:00:03.011Z,77
2023-03-04T03:20:02.509Z,78
2023-03-04T03:40:02.880Z,78
2023-03-04T04:00:02.383Z,78
2023-03-04T04:20:03.095Z,79
2023-03-04T04:40:02.373Z,78
2023-03-04T05:00:02.770Z,78
2023-03-04T05:20:02.261Z,78
2023-03-04T05:40:02.689Z,78
2023-03-04T06:00:03.062Z,78
2023-03-04T06:20:02.824Z,78
2023-03-04T06:40:03.114Z,78
2023-03-04T07:00:02.437Z,79
2023-03-04T07:20:03.173Z,80
2023-03-04T07:40:02.485Z,82
2023-03-04T08:00:02.876Z,83
2023-03-04T08:20:02.306Z,83
2023-03-04T08:40:02.819Z,83
2023-03-04T09:00:03.236Z,84
2023-03-04T09:20:04.751Z,84
2023-03-04T09:40:03.427Z,82
2023-03-04T10:00:03.159Z,79
2023-03-04T10:20:03.175Z,74
2023-03-04T10:40:02.931Z,68
2023-03-04T11:00:02.472Z,65
2023-03-04T11:20:03.266Z,62
2023-03-04T11:40:02.722Z,61
2023-03-04T12:00:03.323Z,60
2023-03-04T12:20:03.324Z,59
2023-03-04T12:40:03.167Z,59
2023-03-04T13:00:03.994Z,58
2023-03-04T13:20:03.305Z,57
2023-03-04T13:40:02.713Z,58
2023-03-04T14:00:03.296Z,58
2023-03-04T14:20:02.637Z,58
2023-03-04T14:40:03.328Z,57
2023-03-04T15:00:02.981Z,58
2023-03-04T15:20:03.227Z,58
2023-03-04T15:40:03.025Z,57
2023-03-04T16:00:02.817Z,59
2023-03-04T16:20:03.214Z,59
2023-03-04T16:40:03.095Z,59
2023-03-04T17:00:03.107Z,59
2023-03-04T17:20:03.158Z,60
2023-03-04T17:40:03.332Z,60
2023-03-04T18:00:03.781Z,61
2023-03-04T18:20:02.972Z,62
2023-03-04T18:40:02.503Z,64
2023-03-04T19:00:04.233Z,65
2023-03-04T19:20:03.282Z,66
2023-03-04T19:40:02.887Z,66
2023-03-04T20:00:03.114Z,66
2023-03-04T20:20:03.815Z,66
2023-03-04T20:40:03.337Z,66
2023-03-04T21:00:06.762Z,66
2023-03-04T21:20:02.994Z,67
2023-03-04T21:40:02.608Z,66
2023-03-04T22:00:06.686Z,65
2023-03-04T22:20:02.833Z,65
2023-03-04T22:40:03.384Z,65
2023-03-04T23:00:02.958Z,65
2023-03-04T23:20:02.972Z,65
2023-03-04T23:40:02.548Z,66
